Time;durP1;ratioP1;P1;durP2;ratioP2;P2;SDS_P1;SDS_P2;PMS_P1;PMS_P2;Temp;Humidity;BMP_temperature;BMP_pressure;BME280_temperature;BME280_humidity;BME280_pressure;Samples;Min_cycle;Max_cycle;Signal;HPM_P1;HPM_P2
2022/02/06 00:00:30;;;;;;;31.48;19.55;;;11.40;92.80;;;;;;5048537;28;20087;-66
2022/02/06 00:02:57;;;;;;;29.30;20.33;;;11.40;93.00;;;;;;5033104;28;20505;-64
2022/02/06 00:05:23;;;;;;;33.53;20.52;;;11.30;93.10;;;;;;5032867;28;20049;-68
2022/02/06 00:07:49;;;;;;;30.35;20.23;;;11.30;93.00;;;;;;5033036;28;20482;-67
2022/02/06 00:10:16;;;;;;;34.35;20.40;;;11.20;92.80;;;;;;5033010;28;20026;-66
2022/02/06 00:12:41;;;;;;;33.33;20.38;;;11.20;93.10;;;;;;5032911;28;20036;-65
2022/02/06 00:15:07;;;;;;;28.25;19.67;;;11.20;93.00;;;;;;5033012;28;20029;-65
2022/02/06 00:17:33;;;;;;;26.60;18.75;;;11.20;92.90;;;;;;5032790;28;20379;-66
2022/02/06 00:19:59;;;;;;;32.35;18.73;;;11.20;92.70;;;;;;5032996;28;20039;-65
2022/02/06 00:33:07;;;;;;;28.38;17.80;;;11.20;92.40;;;;;;5032916;28;20167;-65
2022/02/06 00:43:03;;;;;;;30.17;19.60;;;11.00;92.60;;;;;;5032609;28;20379;-65
2022/02/06 00:45:28;;;;;;;26.95;19.05;;;11.00;92.70;;;;;;5032698;28;20029;-67
2022/02/06 00:47:54;;;;;;;31.23;21.25;;;11.00;92.60;;;;;;5032475;28;20084;-67
2022/02/06 00:50:20;;;;;;;27.23;18.55;;;11.00;92.50;;;;;;5032573;28;20168;-65
2022/02/06 00:53:00;;;;;;;26.85;18.55;;;11.00;92.50;;;;;;5032596;28;20013;-66
2022/02/06 00:55:26;;;;;;;28.55;18.38;;;11.10;92.60;;;;;;5032558;28;20446;-66
2022/02/06 00:57:51;;;;;;;25.52;18.45;;;11.10;92.50;;;;;;5031238;28;20056;-65
2022/02/06 01:00:17;;;;;;;28.52;18.83;;;11.10;92.40;;;;;;5032466;28;20060;-65
2022/02/06 01:02:43;;;;;;;30.05;19.73;;;11.10;92.40;;;;;;5032497;28;20029;-66
2022/02/06 01:05:08;;;;;;;30.48;19.20;;;11.10;92.50;;;;;;5032317;28;20457;-65
2022/02/06 01:07:34;;;;;;;26.90;17.90;;;11.10;92.30;;;;;;5032412;28;20457;-67
2022/02/06 01:10:00;;;;;;;24.50;18.13;;;11.10;92.30;;;;;;5032257;28;20099;-65
2022/02/06 01:12:30;;;;;;;27.67;19.45;;;11.10;92.20;;;;;;5032395;28;20041;-66
2022/02/06 01:15:13;;;;;;;30.52;18.45;;;11.10;92.10;;;;;;5032421;28;20383;-67
2022/02/06 01:17:48;;;;;;;24.87;18.10;;;11.10;92.10;;;;;;5032297;28;20033;-66
2022/02/06 01:20:40;;;;;;;29.25;18.95;;;11.10;92.10;;;;;;5032111;28;20028;-65
2022/02/06 01:23:11;;;;;;;28.38;18.65;;;11.10;92.10;;;;;;5032069;28;20375;-66
2022/02/06 01:25:49;;;;;;;31.38;18.27;;;11.00;92.00;;;;;;5032338;28;20494;-66
2022/02/06 01:28:20;;;;;;;27.75;17.55;;;11.10;91.90;;;;;;5032297;28;20384;-66
2022/02/06 01:30:54;;;;;;;29.80;17.88;;;11.00;91.90;;;;;;5032141;28;20017;-66
2022/02/06 01:33:30;;;;;;;30.33;17.98;;;11.00;91.90;;;;;;5032136;28;20025;-65
2022/02/06 01:36:05;;;;;;;28.77;17.10;;;11.00;92.10;;;;;;5032266;28;20018;-68
2022/02/06 01:38:58;;;;;;;25.25;17.48;;;11.00;92.00;;;;;;5032247;28;20116;-65
2022/02/06 01:41:27;;;;;;;28.23;18.17;;;11.00;91.80;;;;;;5032106;28;20025;-65
2022/02/06 01:43:59;;;;;;;30.85;18.17;;;10.90;92.10;;;;;;5032009;28;20021;-67
2022/02/06 02:03:43;;;;;;;;;;;10.60;92.10;;;;;;5036016;28;20060;-66
2022/02/06 02:08:12;;;;;;;27.60;19.27;;;10.50;92.30;;;;;;5035505;28;20128;-64
2022/02/06 02:24:24;;;;;;;23.88;16.17;;;10.60;91.90;;;;;;5035232;28;20037;-65
2022/02/06 02:45:52;;;;;;;;;;;10.70;92.00;;;;;;5035326;28;20036;-66
2022/02/06 02:48:20;;;;;;;26.75;16.77;;;10.60;91.80;;;;;;5034664;28;20525;-65
2022/02/06 02:50:53;;;;;;;24.13;16.45;;;10.50;92.00;;;;;;5033372;28;20060;-65
2022/02/06 02:53:34;;;;;;;;;;;10.60;92.00;;;;;;5035166;28;20478;-65
2022/02/06 02:58:52;;;;;;;26.08;16.17;;;10.60;91.50;;;;;;5034435;28;20037;-66
2022/02/06 03:01:36;;;;;;;;;;;10.70;91.70;;;;;;5033869;28;20033;-66
2022/02/06 03:04:01;;;;;;;22.88;16.55;;;10.70;91.80;;;;;;5034332;28;20354;-67
2022/02/06 03:06:27;;;;;;;24.35;16.52;;;10.60;91.40;;;;;;5034284;28;20205;-67
2022/02/06 03:08:55;;;;;;;25.13;15.93;;;10.50;91.70;;;;;;5034386;28;20038;-65
2022/02/06 03:11:20;;;;;;;23.60;17.35;;;10.50;91.80;;;;;;5034136;28;20176;-65
2022/02/06 03:16:35;;;;;;;27.08;16.73;;;10.50;91.70;;;;;;5034419;28;20079;-64
2022/02/06 03:21:31;;;;;;;29.40;17.27;;;10.50;91.70;;;;;;5034289;28;20478;-66
2022/02/06 03:24:09;;;;;;;24.08;16.88;;;10.40;91.60;;;;;;5033961;28;20076;-66
2022/02/06 03:26:35;;;;;;;24.95;15.52;;;10.40;91.90;;;;;;5034126;28;20029;-65
2022/02/06 03:29:00;;;;;;;25.48;16.38;;;10.40;92.00;;;;;;5033920;28;20140;-64
2022/02/06 03:31:26;;;;;;;24.98;15.82;;;10.30;92.10;;;;;;5033850;28;20112;-65
2022/02/06 03:33:52;;;;;;;23.42;16.58;;;10.30;92.20;;;;;;5033671;28;20459;-65
2022/02/06 03:36:21;;;;;;;26.65;16.13;;;10.30;91.90;;;;;;5033763;28;20071;-66
2022/02/06 03:38:51;;;;;;;26.25;17.15;;;10.30;92.20;;;;;;5033608;28;20112;-65
2022/02/06 03:41:17;;;;;;;25.70;15.68;;;10.30;92.20;;;;;;5033712;28;20068;-65
2022/02/06 03:46:17;;;;;;;25.88;17.27;;;10.20;92.00;;;;;;5033500;28;20041;-65
2022/02/06 03:48:47;;;;;;;26.58;17.10;;;10.20;92.30;;;;;;5032069;28;20120;-65
2022/02/06 03:51:21;;;;;;;26.55;16.95;;;10.20;92.40;;;;;;5033417;28;20021;-65
2022/02/06 03:53:50;;;;;;;25.50;16.33;;;10.10;92.20;;;;;;5033444;28;20467;-66
2022/02/06 03:56:18;;;;;;;21.95;16.42;;;10.20;92.40;;;;;;5033430;28;20075;-66
2022/02/06 03:58:44;;;;;;;25.90;17.40;;;10.20;92.40;;;;;;5033296;28;20025;-67
2022/02/06 04:01:09;;;;;;;26.77;17.55;;;10.20;92.40;;;;;;5033399;28;20043;-69
2022/02/06 04:03:35;;;;;;;26.27;15.57;;;10.20;92.40;;;;;;5033304;28;20037;-66
2022/02/06 04:06:01;;;;;;;23.00;16.33;;;10.10;92.60;;;;;;5033115;28;20041;-66
2022/02/06 04:08:29;;;;;;;26.48;17.00;;;10.20;92.40;;;;;;5033125;28;20493;-67
2022/02/06 04:10:56;;;;;;;23.67;16.40;;;10.20;92.40;;;;;;5033502;28;20029;-66
2022/02/06 04:13:24;;;;;;;25.42;16.45;;;10.20;92.40;;;;;;5033099;28;20086;-65
2022/02/06 04:16:00;;;;;;;24.63;16.92;;;10.10;92.30;;;;;;5033156;28;20064;-68
2022/02/06 04:18:46;;;;;;;24.73;16.17;;;10.10;92.40;;;;;;5033211;28;20033;-69
2022/02/06 04:21:12;;;;;;;25.52;16.20;;;10.00;92.00;;;;;;5033002;28;20022;-66
2022/02/06 04:23:37;;;;;;;22.75;17.08;;;10.10;92.60;;;;;;5033060;28;20025;-66
2022/02/06 04:26:03;;;;;;;25.48;16.83;;;10.10;92.50;;;;;;5033092;28;20104;-67
2022/02/06 04:28:29;;;;;;;27.15;16.10;;;10.10;92.50;;;;;;5033003;28;20048;-68
2022/02/06 04:30:55;;;;;;;25.08;16.77;;;10.10;92.20;;;;;;5033099;28;20382;-68
2022/02/06 04:33:20;;;;;;;24.27;15.95;;;10.00;92.50;;;;;;5032943;28;20111;-66
2022/02/06 04:35:49;;;;;;;25.95;16.65;;;9.90;93.00;;;;;;5032981;28;20021;-69
2022/02/06 04:49:25;;;;;;;26.30;17.25;;;9.90;93.30;;;;;;5041419;28;20201;-66
2022/02/06 05:11:47;;;;;;;21.55;15.05;;;9.70;92.80;;;;;;5032781;28;20536;-69
2022/02/06 05:19:35;;;;;;;22.02;15.70;;;9.80;93.30;;;;;;5032588;28;20490;-70
2022/02/06 05:30:16;;;;;;;22.45;15.65;;;9.50;92.50;;;;;;5036224;28;20037;-66
2022/02/06 05:33:15;;;;;;;30.15;15.77;;;9.50;93.00;;;;;;5036032;28;20029;-69
2022/02/06 05:35:35;;;;;;;24.33;16.27;;;9.60;93.00;;;;;;5036781;28;20033;-70
2022/02/06 05:38:02;;;;;;;24.05;15.80;;;9.50;93.30;;;;;;5036242;28;20022;-66
2022/02/06 05:40:27;;;;;;;21.33;14.82;;;9.50;93.50;;;;;;5035980;28;20025;-67
2022/02/06 05:42:53;;;;;;;19.63;14.38;;;9.50;93.20;;;;;;5035897;28;20037;-67
2022/02/06 05:45:19;;;;;;;24.40;15.45;;;9.50;93.20;;;;;;5036015;28;20086;-68
2022/02/06 05:47:45;;;;;;;28.67;15.73;;;9.50;93.20;;;;;;5035901;28;20029;-69
2022/02/06 05:50:16;;;;;;;22.92;15.05;;;9.50;93.30;;;;;;5035673;28;20475;-68
2022/02/06 05:52:42;;;;;;;23.48;15.40;;;9.40;92.40;;;;;;5035644;28;20053;-67
2022/02/06 05:55:09;;;;;;;20.10;15.25;;;9.30;93.20;;;;;;5035773;28;20033;-67
2022/02/06 05:57:35;;;;;;;19.48;14.82;;;9.30;93.10;;;;;;5035851;28;20075;-65
2022/02/06 06:00:03;;;;;;;23.35;14.63;;;9.20;93.40;;;;;;5035679;28;20016;-66
2022/02/06 06:02:29;;;;;;;20.73;14.90;;;9.20;93.50;;;;;;5035950;28;20022;-65
2022/02/06 06:04:56;;;;;;;19.60;14.75;;;9.30;93.30;;;;;;5035630;28;20371;-69
2022/02/06 06:07:22;;;;;;;25.40;14.98;;;9.30;93.30;;;;;;5035244;28;20045;-68
2022/02/06 06:09:48;;;;;;;23.85;15.10;;;9.20;93.40;;;;;;5035455;28;20037;-69
2022/02/06 06:12:14;;;;;;;20.85;14.55;;;9.10;93.00;;;;;;5035364;28;20071;-68
2022/02/06 06:14:40;;;;;;;21.70;14.60;;;9.20;93.40;;;;;;5035409;28;20430;-68
2022/02/06 06:17:06;;;;;;;20.85;14.30;;;9.20;93.20;;;;;;5035430;28;20013;-66
2022/02/06 06:19:34;;;;;;;20.58;14.80;;;9.20;93.10;;;;;;5035361;28;20033;-66
2022/02/06 06:22:00;;;;;;;22.65;15.30;;;9.20;93.30;;;;;;5035382;28;20144;-66
2022/02/06 06:24:27;;;;;;;22.33;15.52;;;9.10;93.30;;;;;;5035070;28;20080;-66
2022/02/06 06:26:53;;;;;;;21.80;14.38;;;9.20;93.30;;;;;;5035447;28;20021;-65
2022/02/06 06:29:20;;;;;;;20.35;15.15;;;9.20;93.40;;;;;;5035042;28;20475;-66
2022/02/06 06:31:46;;;;;;;18.35;13.98;;;9.30;93.50;;;;;;5035167;28;20045;-67
2022/02/06 06:34:12;;;;;;;24.40;14.63;;;9.30;93.30;;;;;;5035048;28;20386;-67
2022/02/06 06:36:38;;;;;;;24.67;15.30;;;9.30;93.00;;;;;;5033643;28;20029;-66
2022/02/06 09:47:28;;;;;;;17.55;12.82;;;13.00;77.20;;;;;;4945164;29;20129;-74
2022/02/06 09:49:59;;;;;;;23.40;12.57;;;13.00;77.00;;;;;;4941225;29;20039;-70
2022/02/06 09:52:29;;;;;;;18.83;12.35;;;13.00;76.20;;;;;;4958002;29;20027;-69
2022/02/06 09:55:07;;;;;;;18.58;11.88;;;13.10;76.50;;;;;;4940613;29;20110;-70
2022/02/06 10:00:26;;;;;;;18.52;12.68;;;13.20;76.30;;;;;;4943468;29;20488;-70
2022/02/06 10:02:55;;;;;;;23.38;12.90;;;13.20;75.90;;;;;;4938261;29;20027;-69
2022/02/06 10:05:33;;;;;;;16.80;12.23;;;13.30;76.40;;;;;;4938631;29;20100;-70
2022/02/06 10:08:24;;;;;;;20.60;13.68;;;13.40;76.40;;;;;;4938303;29;20047;-68
2022/02/06 10:11:16;;;;;;;21.17;13.35;;;13.40;75.90;;;;;;4938302;29;20087;-68
2022/02/06 10:13:43;;;;;;;20.73;12.77;;;13.60;76.00;;;;;;4938403;29;20465;-71
2022/02/06 10:16:16;;;;;;;17.00;12.38;;;13.60;75.70;;;;;;4921689;29;20047;-71
2022/02/06 10:18:45;;;;;;;18.48;13.40;;;13.70;75.50;;;;;;4937662;29;20102;-69
2022/02/06 10:21:19;;;;;;;18.35;13.38;;;13.80;75.40;;;;;;4922010;29;20110;-70
2022/02/06 10:24:13;;;;;;;22.05;11.98;;;13.90;75.10;;;;;;4938488;29;20035;-69
2022/02/06 10:26:52;;;;;;;21.52;12.77;;;14.00;74.50;;;;;;4925323;29;20473;-71
2022/02/06 10:31:54;;;;;;;18.88;12.60;;;14.20;74.80;;;;;;4921562;29;20366;-69
2022/02/06 10:34:33;;;;;;;18.83;12.95;;;14.30;74.70;;;;;;4921565;29;20326;-68
2022/02/06 10:37:15;;;;;;;19.23;13.18;;;14.40;74.00;;;;;;4937778;29;20032;-69
2022/02/06 10:39:51;;;;;;;23.00;13.15;;;14.50;73.90;;;;;;4937760;29;20028;-71
2022/02/06 10:42:28;;;;;;;22.50;13.73;;;14.60;73.90;;;;;;4937641;29;20047;-73
2022/02/06 10:45:17;;;;;;;19.20;12.23;;;14.70;73.80;;;;;;4938171;29;20023;-69
2022/02/06 10:47:45;;;;;;;19.38;12.45;;;14.80;73.60;;;;;;4937576;29;20402;-68
2022/02/06 10:50:16;;;;;;;20.38;13.23;;;14.90;73.20;;;;;;4936605;29;20027;-71
2022/02/06 10:52:43;;;;;;;20.73;13.30;;;15.00;73.20;;;;;;4918880;29;20115;-68
2022/02/06 10:55:10;;;;;;;21.83;13.82;;;15.00;72.60;;;;;;4920626;29;20028;-68
2022/02/06 10:57:52;;;;;;;21.92;13.35;;;15.10;72.40;;;;;;4933372;29;20560;-69
2022/02/06 11:00:30;;;;;;;24.42;11.80;;;15.20;72.50;;;;;;4945796;28;20027;-72
2022/02/06 11:03:23;;;;;;;17.33;11.85;;;15.30;72.50;;;;;;4952744;28;20047;-68
2022/02/06 11:05:52;;;;;;;19.08;12.48;;;15.30;72.20;;;;;;4956681;29;20046;-67
2022/02/06 11:08:29;;;;;;;23.38;12.40;;;15.40;72.20;;;;;;4939423;29;20042;-69
2022/02/06 11:11:00;;;;;;;18.42;9.95;;;15.60;72.30;;;;;;4956527;29;20408;-70
2022/02/06 11:13:27;;;;;;;18.50;10.13;;;15.70;71.90;;;;;;4937224;29;20389;-68
2022/02/06 11:15:53;;;;;;;17.05;10.15;;;15.80;71.90;;;;;;4920557;29;20115;-71
2022/02/06 11:18:27;;;;;;;21.30;10.07;;;15.90;71.50;;;;;;4953134;29;20043;-68
2022/02/06 11:21:04;;;;;;;19.38;10.25;;;16.00;70.70;;;;;;4956526;28;20030;-70
2022/02/06 11:23:52;;;;;;;23.73;10.85;;;16.10;70.80;;;;;;4955925;29;20038;-71
2022/02/06 11:26:23;;;;;;;22.17;10.65;;;16.20;70.10;;;;;;4938825;29;20484;-69
2022/02/06 11:28:51;;;;;;;18.45;9.77;;;16.20;70.80;;;;;;4956300;29;20407;-68
2022/02/06 11:31:18;;;;;;;20.05;9.80;;;16.30;68.80;;;;;;4954559;28;20035;-67
2022/02/06 11:33:47;;;;;;;20.23;10.55;;;16.30;68.50;;;;;;4938658;28;20191;-69
2022/02/06 11:36:19;;;;;;;18.27;10.48;;;16.40;68.50;;;;;;4952133;29;20384;-67
2022/02/06 11:44:44;;;;;;;16.23;8.45;;;16.60;67.90;;;;;;4955754;28;20038;-66
2022/02/06 11:47:29;;;;;;;16.10;9.70;;;16.70;66.80;;;;;;4919563;29;20074;-67
2022/02/06 11:50:07;;;;;;;14.07;8.43;;;16.80;72.40;;;;;;4920260;29;20043;-65
2022/02/06 11:53:09;;;;;;;19.23;9.73;;;16.90;72.50;;;;;;4919950;29;20039;-66
2022/02/06 11:55:37;;;;;;;16.08;8.95;;;16.90;65.60;;;;;;4936729;29;20020;-66
2022/02/06 11:58:31;;;;;;;15.38;9.27;;;16.90;64.90;;;;;;4936407;29;20035;-65
2022/02/06 12:01:06;;;;;;;14.85;8.50;;;16.80;65.30;;;;;;4919612;29;20034;-71
2022/02/06 12:03:54;;;;;;;12.75;8.65;;;16.90;65.40;;;;;;4936741;29;20028;-67
2022/02/06 12:06:24;;;;;;;20.00;9.48;;;16.90;65.40;;;;;;4936510;29;20027;-67
2022/02/06 12:08:59;;;;;;;15.82;8.63;;;17.00;65.30;;;;;;4935997;29;20040;-66
2022/02/06 12:11:27;;;;;;;16.73;8.52;;;17.10;69.70;;;;;;4919464;29;20050;-66
2022/02/06 12:14:12;;;;;;;14.30;9.18;;;17.00;64.80;;;;;;4936314;29;20047;-67
2022/02/06 12:16:47;;;;;;;17.33;9.57;;;17.00;65.00;;;;;;4936331;29;20023;-68
2022/02/06 12:19:31;;;;;;;19.52;9.50;;;17.00;70.20;;;;;;4918925;29;20439;-68
2022/02/06 12:21:59;;;;;;;17.13;8.63;;;17.00;65.10;;;;;;4935747;29;20137;-65
2022/02/06 12:24:41;;;;;;;17.10;9.70;;;17.10;70.10;;;;;;4935625;29;20039;-66
2022/02/06 12:27:25;;;;;;;19.92;9.60;;;17.20;64.80;;;;;;4935958;29;20030;-68
2022/02/06 12:29:58;;;;;;;20.02;8.25;;;17.40;64.50;;;;;;4935833;29;20126;-67
2022/02/06 12:32:35;;;;;;;15.57;8.60;;;17.50;64.40;;;;;;4934543;29;20028;-65
2022/02/06 12:37:56;;;;;;;17.10;8.75;;;17.80;63.60;;;;;;4934882;29;20042;-66
2022/02/06 12:40:26;;;;;;;16.55;7.68;;;18.00;61.90;;;;;;4919046;29;20035;-69
2022/02/06 12:43:00;;;;;;;17.30;9.50;;;18.20;67.40;;;;;;4924670;29;20083;-74
2022/02/06 12:45:28;;;;;;;20.77;9.52;;;18.20;61.80;;;;;;4935999;29;20044;-69
2022/02/06 12:48:09;;;;;;;14.57;8.52;;;18.20;65.80;;;;;;4935674;29;20044;-66
2022/02/06 12:50:40;;;;;;;16.48;8.75;;;18.20;60.20;;;;;;4935761;29;20044;-69
2022/02/06 12:53:14;;;;;;;10.88;7.05;;;18.20;60.10;;;;;;4902881;29;20036;-66
2022/02/06 12:55:40;;;;;;;16.90;7.97;;;18.20;60.30;;;;;;4934390;29;20066;-66
2022/02/06 12:58:08;;;;;;;15.82;7.43;;;18.20;59.60;;;;;;4934940;29;20059;-76
2022/02/06 13:00:46;;;;;;;17.38;9.25;;;18.20;60.20;;;;;;4935297;29;20032;-79
2022/02/06 13:03:22;;;;;;;16.50;8.55;;;18.20;59.50;;;;;;4918235;29;20032;-75
2022/02/06 13:06:14;;;;;;;15.75;9.02;;;18.30;60.20;;;;;;4935172;29;20574;-74
2022/02/06 13:08:41;;;;;;;11.77;7.60;;;18.40;59.40;;;;;;4934968;29;20040;-77
2022/02/06 13:11:18;;;;;;;17.15;7.85;;;18.60;59.40;;;;;;4933899;29;20040;-77
2022/02/06 13:14:07;;;;;;;15.45;6.53;;;18.80;59.50;;;;;;4935761;29;20055;-79
2022/02/06 13:19:19;;;;;;;11.52;5.63;;;19.30;57.70;;;;;;4934846;29;20032;-65
2022/02/06 13:22:35;;;;;;;13.13;5.22;;;19.30;57.40;;;;;;4934757;29;20027;-64
2022/02/06 13:25:08;;;;;;;11.60;5.32;;;19.40;56.50;;;;;;4950719;29;20123;-66
2022/02/06 13:33:15;;;;;;;9.57;4.93;;;19.10;56.50;;;;;;4954183;29;20030;-64
2022/02/06 13:35:54;;;;;;;12.35;4.85;;;19.10;56.60;;;;;;4954256;28;20098;-66
2022/02/06 13:38:19;;;;;;;13.02;6.82;;;19.00;56.30;;;;;;4953965;29;20131;-68
2022/02/06 13:40:52;;;;;;;10.07;5.35;;;19.00;56.40;;;;;;4954158;29;20439;-69
2022/02/06 13:43:25;;;;;;;10.88;5.00;;;18.90;56.10;;;;;;4954027;29;20062;-70
2022/02/06 13:45:55;;;;;;;11.13;4.63;;;18.80;55.60;;;;;;4955141;28;20070;-69
2022/02/06 13:48:23;;;;;;;10.63;4.82;;;18.80;55.60;;;;;;4957794;29;20114;-68
2022/02/06 13:50:57;;;;;;;11.73;4.85;;;18.80;55.70;;;;;;4957426;28;20102;-67
2022/02/06 13:53:24;;;;;;;15.50;5.15;;;18.80;55.70;;;;;;4957538;29;20026;-71
2022/02/06 13:55:53;;;;;;;11.55;5.57;;;18.70;56.10;;;;;;4957115;28;20046;-72
2022/02/06 13:58:22;;;;;;;11.32;4.97;;;18.70;56.10;;;;;;4956960;29;20108;-67
2022/02/06 14:01:01;;;;;;;10.88;5.32;;;18.70;56.20;;;;;;4957172;28;20472;-68
2022/02/06 14:03:49;;;;;;;10.38;4.95;;;18.70;55.20;;;;;;4957092;28;20066;-68
2022/02/06 14:06:35;;;;;;;8.82;4.57;;;18.60;54.90;;;;;;4957300;28;20023;-69
2022/02/06 14:09:15;;;;;;;9.43;4.68;;;18.60;55.80;;;;;;4956053;29;20039;-69
2022/02/06 14:12:04;;;;;;;14.00;6.40;;;18.50;56.40;;;;;;4957315;28;20023;-69
2022/02/06 14:14:34;;;;;;;15.77;5.63;;;18.50;56.10;;;;;;4957317;28;20154;-70
2022/02/06 14:17:01;;;;;;;13.23;5.30;;;18.50;56.50;;;;;;4957110;29;20046;-67
2022/02/06 14:19:44;;;;;;;13.38;6.05;;;18.40;57.00;;;;;;4956981;29;20034;-68
2022/02/06 14:22:15;;;;;;;9.32;5.38;;;18.40;57.00;;;;;;4921325;29;20048;-68
2022/02/06 14:24:54;;;;;;;10.93;5.47;;;18.40;57.60;;;;;;4926642;29;20028;-75
2022/02/06 14:27:32;;;;;;;10.73;5.88;;;18.40;57.70;;;;;;4918534;29;20036;-72
2022/02/06 14:30:18;;;;;;;12.30;5.72;;;18.40;57.80;;;;;;4918485;29;20040;-65
2022/02/06 14:32:59;;;;;;;12.98;5.72;;;18.40;58.00;;;;;;4918460;29;20103;-68
2022/02/06 14:35:37;;;;;;;12.77;5.45;;;18.30;58.20;;;;;;4918474;29;20039;-70
2022/02/06 14:38:05;;;;;;;10.82;5.93;;;18.30;58.90;;;;;;4918025;29;20028;-67
2022/02/06 14:43:11;;;;;;;11.32;5.60;;;18.30;57.50;;;;;;4918684;29;20044;-63
2022/02/06 14:45:44;;;;;;;14.00;6.03;;;18.20;57.70;;;;;;4937132;29;20044;-64
2022/02/06 14:48:12;;;;;;;15.70;6.37;;;18.20;57.80;;;;;;4936945;29;20624;-63
2022/02/06 14:50:38;;;;;;;12.10;5.40;;;18.10;58.00;;;;;;4919750;29;20357;-65
2022/02/06 14:53:03;;;;;;;14.63;5.57;;;18.00;57.90;;;;;;4936831;29;20030;-66
2022/02/06 14:55:30;;;;;;;13.88;5.53;;;18.00;57.90;;;;;;4919224;29;20041;-64
2022/02/06 14:57:56;;;;;;;11.02;4.97;;;18.00;58.60;;;;;;4915882;29;20107;-65
2022/02/06 15:00:21;;;;;;;12.13;5.55;;;18.00;58.40;;;;;;4924193;29;20062;-66
2022/02/06 15:02:47;;;;;;;10.05;5.13;;;18.00;58.20;;;;;;4931060;29;20039;-64
2022/02/06 15:05:13;;;;;;;11.15;5.13;;;17.90;58.50;;;;;;4927425;29;20137;-65
2022/02/06 15:07:38;;;;;;;17.15;5.95;;;17.80;58.50;;;;;;4936368;29;20036;-65
2022/02/06 15:10:05;;;;;;;13.73;5.82;;;17.70;58.50;;;;;;4936718;29;20032;-66
2022/02/06 15:12:30;;;;;;;11.85;5.75;;;17.70;59.30;;;;;;4919884;29;20055;-66
2022/02/06 15:14:57;;;;;;;15.40;6.03;;;17.60;59.30;;;;;;4936755;29;20097;-63
2022/02/06 15:17:23;;;;;;;14.57;6.13;;;17.50;59.50;;;;;;4936901;29;20027;-67
2022/02/06 15:19:50;;;;;;;14.15;6.20;;;17.50;60.10;;;;;;4915868;29;20063;-66
2022/02/06 15:22:15;;;;;;;13.00;6.47;;;17.50;60.00;;;;;;4932950;29;20138;-66
2022/02/06 15:24:41;;;;;;;15.80;7.25;;;17.40;60.20;;;;;;4936609;29;20059;-65
2022/02/06 15:27:08;;;;;;;16.83;7.05;;;17.40;62.40;;;;;;4921626;29;20052;-65
2022/02/06 15:29:34;;;;;;;15.55;6.95;;;17.30;62.60;;;;;;4916412;29;20032;-66
2022/02/06 15:32:00;;;;;;;14.48;6.63;;;17.30;61.70;;;;;;4917469;29;20051;-65
2022/02/06 15:34:29;;;;;;;14.63;6.65;;;17.20;61.80;;;;;;4917345;29;20103;-66
2022/02/06 15:36:59;;;;;;;11.80;6.25;;;17.10;62.10;;;;;;4917305;29;20039;-66
2022/02/06 15:39:33;;;;;;;13.65;6.88;;;17.00;63.30;;;;;;4917328;29;20084;-65
2022/02/06 15:42:00;;;;;;;14.57;6.70;;;17.00;62.80;;;;;;4917170;29;20035;-64
2022/02/06 15:44:26;;;;;;;12.13;6.47;;;16.90;63.00;;;;;;4917034;29;20029;-66
2022/02/06 15:46:52;;;;;;;12.75;6.93;;;16.80;63.20;;;;;;4916767;29;20512;-63
2022/02/06 15:49:19;;;;;;;18.05;7.47;;;16.80;67.60;;;;;;4916968;29;20090;-68
2022/02/06 15:51:46;;;;;;;14.20;7.50;;;16.70;69.30;;;;;;4916760;29;20427;-66
2022/02/06 15:54:12;;;;;;;17.55;7.55;;;16.60;64.40;;;;;;4916923;29;20060;-66
2022/02/06 15:56:38;;;;;;;15.88;7.80;;;16.60;71.20;;;;;;4917526;29;20421;-64
2022/02/06 15:59:06;;;;;;;16.95;8.68;;;16.50;71.60;;;;;;4916517;29;20064;-64
2022/02/06 16:01:37;;;;;;;18.00;8.50;;;16.40;67.00;;;;;;4916759;29;20075;-65
2022/02/06 16:04:03;;;;;;;14.90;8.57;;;16.30;67.40;;;;;;4916766;29;20087;-64
2022/02/06 16:06:29;;;;;;;15.40;8.20;;;16.20;68.20;;;;;;4916873;29;20039;-64
2022/02/06 16:08:54;;;;;;;15.93;8.57;;;16.10;69.20;;;;;;4916193;29;20070;-71
2022/02/06 16:11:20;;;;;;;15.90;7.72;;;16.10;74.00;;;;;;4916633;29;20031;-64
2022/02/06 16:13:46;;;;;;;21.25;8.02;;;16.00;74.20;;;;;;4916939;29;20035;-65
2022/02/06 16:16:11;;;;;;;15.27;8.25;;;15.90;74.50;;;;;;4916722;29;20024;-64
2022/02/06 16:18:37;;;;;;;15.30;8.13;;;15.80;71.00;;;;;;4916848;29;20035;-64
2022/02/06 16:21:03;;;;;;;19.60;7.93;;;15.70;71.30;;;;;;4899727;29;20024;-66
2022/02/06 16:23:28;;;;;;;17.38;8.10;;;15.60;75.20;;;;;;4900150;29;20039;-66
2022/02/06 16:25:54;;;;;;;16.33;8.48;;;15.60;75.90;;;;;;4916929;29;20111;-66
2022/02/06 16:28:20;;;;;;;17.40;7.63;;;15.50;76.00;;;;;;4916584;29;20378;-67
2022/02/06 16:30:48;;;;;;;19.08;8.77;;;15.40;72.80;;;;;;4916870;29;20079;-64
2022/02/06 16:33:14;;;;;;;16.65;7.70;;;15.40;73.60;;;;;;4916687;29;20103;-63
2022/02/06 16:35:39;;;;;;;15.00;8.27;;;15.30;74.20;;;;;;4917063;29;20418;-63
2022/02/06 16:38:05;;;;;;;19.73;9.13;;;15.30;74.50;;;;;;4899731;29;20469;-63
2022/02/06 16:40:31;;;;;;;16.42;9.32;;;15.20;74.60;;;;;;4916690;29;20107;-64
2022/02/06 16:42:57;;;;;;;17.17;9.27;;;15.10;75.20;;;;;;4916793;29;20481;-63
2022/02/06 16:45:23;;;;;;;20.15;10.35;;;15.10;75.60;;;;;;4916651;29;20050;-70
2022/02/06 16:47:49;;;;;;;18.75;11.65;;;15.10;76.30;;;;;;4916609;29;20028;-73
2022/02/06 16:50:14;;;;;;;18.63;11.52;;;15.10;76.80;;;;;;4916883;29;20036;-68
2022/02/06 16:52:40;;;;;;;18.38;12.18;;;15.00;77.50;;;;;;4916718;29;20024;-67
2022/02/06 16:55:07;;;;;;;23.90;11.63;;;15.00;78.60;;;;;;4916615;29;20541;-64
2022/02/06 16:57:32;;;;;;;19.15;12.30;;;15.00;78.70;;;;;;4916633;29;20020;-64
2022/02/06 16:59:58;;;;;;;22.60;13.98;;;14.90;79.00;;;;;;4916710;29;20087;-64
2022/02/06 17:02:24;;;;;;;24.15;15.00;;;14.90;79.40;;;;;;4916880;29;20116;-66
2022/02/06 17:04:50;;;;;;;26.13;13.75;;;14.90;79.80;;;;;;4916452;29;20091;-65
2022/02/06 17:07:16;;;;;;;22.08;13.88;;;14.90;79.90;;;;;;4916688;29;20028;-66
2022/02/06 17:09:42;;;;;;;26.63;13.32;;;15.00;81.70;;;;;;4916419;29;20469;-64
2022/02/06 17:12:11;;;;;;;26.25;13.40;;;15.00;81.90;;;;;;4916666;29;20025;-62
2022/02/06 17:14:36;;;;;;;21.23;13.00;;;15.00;81.90;;;;;;4916978;29;20028;-63
2022/02/06 17:17:03;;;;;;;21.55;12.85;;;15.00;82.50;;;;;;4916465;29;20488;-64
2022/02/06 17:19:28;;;;;;;25.23;12.82;;;15.00;82.70;;;;;;4916290;29;20060;-66
2022/02/06 17:21:55;;;;;;;21.88;12.57;;;15.00;83.00;;;;;;4919860;29;20103;-66
2022/02/06 17:24:21;;;;;;;16.98;11.70;;;15.00;83.30;;;;;;4920300;29;20389;-65
2022/02/06 17:26:48;;;;;;;20.98;12.20;;;15.00;82.90;;;;;;4920299;29;20028;-66
2022/02/06 17:29:14;;;;;;;21.77;12.45;;;15.00;83.20;;;;;;4920069;29;20076;-63
2022/02/06 17:31:41;;;;;;;21.83;12.65;;;15.00;83.80;;;;;;4920263;29;20088;-67
2022/02/06 17:34:07;;;;;;;21.83;12.48;;;15.00;84.00;;;;;;4920542;29;20028;-68
2022/02/06 17:36:33;;;;;;;19.20;13.18;;;14.90;84.10;;;;;;4920248;29;20099;-64
2022/02/06 17:38:59;;;;;;;24.98;13.18;;;14.90;84.50;;;;;;4920276;29;20036;-64
2022/02/06 17:41:25;;;;;;;23.10;12.52;;;14.90;85.00;;;;;;4920255;29;20447;-67
2022/02/06 17:43:51;;;;;;;27.73;14.43;;;14.90;85.20;;;;;;4919942;29;20495;-64
2022/02/06 17:46:16;;;;;;;23.15;14.45;;;14.90;85.50;;;;;;4919576;29;20071;-66
2022/02/06 17:48:44;;;;;;;22.88;13.80;;;14.90;85.70;;;;;;4919647;29;20047;-65
2022/02/06 17:51:10;;;;;;;21.40;14.30;;;14.90;85.80;;;;;;4919717;29;20050;-63
2022/02/06 17:53:36;;;;;;;24.70;13.50;;;14.90;85.70;;;;;;4919787;29;20028;-64
2022/02/06 17:56:02;;;;;;;23.50;12.70;;;14.80;85.90;;;;;;4919777;29;20099;-63
2022/02/06 17:58:28;;;;;;;20.63;12.10;;;14.80;86.30;;;;;;4919549;29;20053;-63
2022/02/06 18:00:53;;;;;;;15.57;10.52;;;14.80;86.40;;;;;;4919739;29;20060;-67
2022/02/06 18:03:20;;;;;;;22.52;11.75;;;14.80;86.40;;;;;;4919508;29;20504;-64
2022/02/06 18:05:46;;;;;;;24.23;11.25;;;14.80;86.80;;;;;;4919535;29;20060;-65
2022/02/06 18:08:12;;;;;;;21.98;10.82;;;14.70;86.70;;;;;;4919213;29;20504;-65
2022/02/06 18:10:38;;;;;;;25.75;10.98;;;14.70;87.10;;;;;;4919563;29;20054;-65
2022/02/06 18:13:04;;;;;;;20.30;11.73;;;14.70;87.40;;;;;;4919452;29;20031;-63
2022/02/06 18:15:30;;;;;;;18.90;11.15;;;14.60;87.60;;;;;;4919184;29;20028;-64
2022/02/06 18:17:56;;;;;;;22.75;11.80;;;14.60;87.70;;;;;;4919173;29;20115;-66
2022/02/06 18:20:22;;;;;;;23.27;11.30;;;14.60;88.10;;;;;;4919204;29;20058;-65
2022/02/06 18:22:51;;;;;;;20.48;12.02;;;14.50;88.20;;;;;;4919163;29;20498;-64
2022/02/06 18:25:21;;;;;;;22.77;11.38;;;14.50;88.30;;;;;;4919295;29;20048;-65
2022/02/06 18:27:48;;;;;;;21.15;11.43;;;14.50;88.70;;;;;;4919063;29;20056;-64